Henry T — WDC3903 — position and weather

sailwx.info

Track history (hours):
 
Tides and Currents Weather Stations Pressure Air Temp Water Temp Dewpoint Dewpoint Depression Visibility Wind Speed Wind Dir Waves Ship Positions

Henry T

Owner: T & T MARINE INC., Galveston, TX. More information available from US FCC via Universal Licensing System and Coast Guard Vessel Documentation Center.

Last reported at 2017-Oct-20 14:14 UTC. Time now 2017-Dec-14 00:25 UTC.
Position N 29°34' W 094°55'.
Warning: this ship's position is 54 days out of date.

Length 17 m.

MMSI: 367016010.

Date/timePositionNaut miles runAvg speedWind from/ knotsBaromVisibWave heightAir tempDewpointWater temp
2017-Oct-20 14:14N 29°34' W 094°55'9 6.6
2017-Oct-20 12:57N 29°41' W 094°59'8 5.1
2017-Oct-20 11:26N 29°44' W 095°07'2 0.2
2017-Oct-20 00:20N 29°45' W 095°10'1 2.9
2017-Oct-20 00:00N 29°44' W 095°09'3 5.4
2017-Oct-19 23:22N 29°45' W 095°06'2 4.4
2017-Oct-19 23:00N 29°45' W 095°04'3 5.6
2017-Oct-19 22:29N 29°43' W 095°01'3 5.6
2017-Oct-19 22:01N 29°41' W 094°59'3 6.1
2017-Oct-19 21:30N 29°38' W 094°58'3 6.1
2017-Oct-19 20:59N 29°35' W 094°56'3 6.2
2017-Oct-19 20:30N 29°33' W 094°54'8 0.3
2017-Oct-18 14:57N 29°40' W 094°59'8 4.8
2017-Oct-18 13:16N 29°45' W 095°06'2 5.8
2017-Oct-18 12:59N 29°44' W 095°08'3 5.2
2017-Oct-18 12:30N 29°45' W 095°11'3 5.3
2017-Oct-18 12:00N 29°44' W 095°13'3 5.1
2017-Oct-18 11:30N 29°44' W 095°16'0 0.1
2017-Oct-18 10:59N 29°43' W 095°16'0 0.0
2017-Oct-18 10:30N 29°43' W 095°16'0 0.0
2017-Oct-18 09:59N 29°43' W 095°16'0 0.0
2017-Oct-18 09:29N 29°43' W 095°16'0 0.0
2017-Oct-18 09:00N 29°43' W 095°16'0 0.0
2017-Oct-18 08:30N 29°43' W 095°16'0 0.0
2017-Oct-18 07:58N 29°43' W 095°16'0 0.0
2017-Oct-18 07:29N 29°43' W 095°16'0 0.0
2017-Oct-18 06:58N 29°43' W 095°16'0 0.0
2017-Oct-18 06:29N 29°43' W 095°16'0 0.0
2017-Oct-18 06:00N 29°43' W 095°16'0 0.0
2017-Oct-18 05:30N 29°43' W 095°16'0 0.0
2017-Oct-18 05:00N 29°43' W 095°16'0 0.0
2017-Oct-18 04:29N 29°43' W 095°16'0 0.0
2017-Oct-18 03:55N 29°43' W 095°16'0 0.0
2017-Oct-18 03:28N 29°43' W 095°16'0 0.0
2017-Oct-18 02:59N 29°43' W 095°16'0 0.0
2017-Oct-18 02:28N 29°43' W 095°16'0 0.0
2017-Oct-18 00:59N 29°43' W 095°16'0 0.0
2017-Oct-18 00:29N 29°43' W 095°16'0 0.0
2017-Oct-17 20:36N 29°44' W 095°16'1 3.8
2017-Oct-17 20:22N 29°43' W 095°15'9 4.4
2017-Oct-17 18:11N 29°46' W 095°04'1 4.4
2017-Oct-17 17:58N 29°45' W 095°04'2 5.0
2017-Oct-17 17:30N 29°44' W 095°02'2 4.6
2017-Oct-17 17:00N 29°42' W 094°60'3 5.2
2017-Oct-17 16:30N 29°40' W 094°58'3 5.8
2017-Oct-17 16:00N 29°37' W 094°57'3 5.5
2017-Oct-17 15:29N 29°35' W 094°56'3 5.6
2017-Oct-17 14:59N 29°32' W 094°54'  
2017-Oct-13 10:20N 29°17' W 094°53'0 0.0
2017-Oct-13 09:57N 29°17' W 094°53'0 0.0
2017-Oct-13 09:09N 29°17' W 094°53'0 0.0
2017-Oct-13 08:48N 29°17' W 094°53'0 0.0
2017-Oct-13 08:30N 29°17' W 094°53'0 0.0
2017-Oct-13 07:57N 29°17' W 094°53'0 0.0
2017-Oct-13 06:23N 29°17' W 094°53'11 0.3
2017-Oct-11 17:03N 29°28' W 094°54'0 7.3
2017-Oct-11 17:00N 29°27' W 094°55'  
Track history (hours):
 
Tides and Currents Weather Stations Pressure Air Temp Water Temp Dewpoint Dewpoint Depression Visibility Wind Speed Wind Dir Waves Ship Positions

Henry T

Owner: T & T MARINE INC., Galveston, TX. More information available from US FCC via Universal Licensing System and Coast Guard Vessel Documentation Center.

Last reported at 2017-Oct-20 14:14 UTC. Time now 2017-Dec-14 00:25 UTC.
Position N 29°34' W 094°55'.
Warning: this ship's position is 54 days out of date.

Length 17 m.

MMSI: 367016010.

Date/timePositionNaut miles runAvg speedWind from/ knotsBaromVisibWave heightAir tempDewpointWater temp
2017-Oct-20 14:14N 29°34' W 094°55'9 6.6
2017-Oct-20 12:57N 29°41' W 094°59'8 5.1
2017-Oct-20 11:26N 29°44' W 095°07'2 0.2
2017-Oct-20 00:20N 29°45' W 095°10'1 2.9
2017-Oct-20 00:00N 29°44' W 095°09'3 5.4
2017-Oct-19 23:22N 29°45' W 095°06'2 4.4
2017-Oct-19 23:00N 29°45' W 095°04'3 5.6
2017-Oct-19 22:29N 29°43' W 095°01'3 5.6
2017-Oct-19 22:01N 29°41' W 094°59'3 6.1
2017-Oct-19 21:30N 29°38' W 094°58'3 6.1
2017-Oct-19 20:59N 29°35' W 094°56'3 6.2
2017-Oct-19 20:30N 29°33' W 094°54'8 0.3
2017-Oct-18 14:57N 29°40' W 094°59'8 4.8
2017-Oct-18 13:16N 29°45' W 095°06'2 5.8
2017-Oct-18 12:59N 29°44' W 095°08'3 5.2
2017-Oct-18 12:30N 29°45' W 095°11'3 5.3
2017-Oct-18 12:00N 29°44' W 095°13'3 5.1
2017-Oct-18 11:30N 29°44' W 095°16'0 0.1
2017-Oct-18 10:59N 29°43' W 095°16'0 0.0
2017-Oct-18 10:30N 29°43' W 095°16'0 0.0
2017-Oct-18 09:59N 29°43' W 095°16'0 0.0
2017-Oct-18 09:29N 29°43' W 095°16'0 0.0
2017-Oct-18 09:00N 29°43' W 095°16'0 0.0
2017-Oct-18 08:30N 29°43' W 095°16'0 0.0
2017-Oct-18 07:58N 29°43' W 095°16'0 0.0
2017-Oct-18 07:29N 29°43' W 095°16'0 0.0
2017-Oct-18 06:58N 29°43' W 095°16'0 0.0
2017-Oct-18 06:29N 29°43' W 095°16'0 0.0
2017-Oct-18 06:00N 29°43' W 095°16'0 0.0
2017-Oct-18 05:30N 29°43' W 095°16'0 0.0
2017-Oct-18 05:00N 29°43' W 095°16'0 0.0
2017-Oct-18 04:29N 29°43' W 095°16'0 0.0
2017-Oct-18 03:55N 29°43' W 095°16'0 0.0
2017-Oct-18 03:28N 29°43' W 095°16'0 0.0
2017-Oct-18 02:59N 29°43' W 095°16'0 0.0
2017-Oct-18 02:28N 29°43' W 095°16'0 0.0
2017-Oct-18 00:59N 29°43' W 095°16'0 0.0
2017-Oct-18 00:29N 29°43' W 095°16'0 0.0
2017-Oct-17 20:36N 29°44' W 095°16'1 3.8
2017-Oct-17 20:22N 29°43' W 095°15'9 4.4
2017-Oct-17 18:11N 29°46' W 095°04'1 4.4
2017-Oct-17 17:58N 29°45' W 095°04'2 5.0
2017-Oct-17 17:30N 29°44' W 095°02'2 4.6
2017-Oct-17 17:00N 29°42' W 094°60'3 5.2
2017-Oct-17 16:30N 29°40' W 094°58'3 5.8
2017-Oct-17 16:00N 29°37' W 094°57'3 5.5
2017-Oct-17 15:29N 29°35' W 094°56'3 5.6
2017-Oct-17 14:59N 29°32' W 094°54'  
2017-Oct-13 10:20N 29°17' W 094°53'0 0.0
2017-Oct-13 09:57N 29°17' W 094°53'0 0.0
2017-Oct-13 09:09N 29°17' W 094°53'0 0.0
2017-Oct-13 08:48N 29°17' W 094°53'0 0.0
2017-Oct-13 08:30N 29°17' W 094°53'0 0.0
2017-Oct-13 07:57N 29°17' W 094°53'0 0.0
2017-Oct-13 06:23N 29°17' W 094°53'11 0.3
2017-Oct-11 17:03N 29°28' W 094°54'0 7.3
2017-Oct-11 17:00N 29°27' W 094°55'  

Dump ship's entire track history